Latest Weather Observations for Bourke

IDN60801

Issued at 9:52 pm EST Tuesday 4 August 2020 (issued every 10 minutes, with the page automatically refreshed every 10 minutes)

About weather observations | Map of weather stations | Latest weather observations for NSW | Other Formats
Station Details ID: 048245 Name: BOURKE AIRPORT AWS Lat: -30.04 Lon: 145.95 Height: 107.3 m
Data from the previous 72 hours. | See also: Recent months at Bourke
Date/Time
EST
Temp
°C
App
Temp
°C
Dew
Point
°C
Rel
Hum
%
Delta-T
°C
Wind Press
QNH
hPa
Press
MSL
hPa
Rain since
9am
mm
Dir  Spd
km/h
Gust
km/h
Spd
kts
Gust
kts
04/09:30pm 13.8 9.1 3.3 49 4.7 S 17 24 9 13 1015.9 1015.9 0.0
04/09:00pm 14.6 9.6 3.7 48 5.0 SSW 19 24 10 13 1015.6 1015.6 0.0
04/08:30pm 15.0 10.2 2.5 43 5.6 S 17 24 9 13 1015.2 1015.2 0.0
04/08:00pm 16.1 10.9 2.5 40 6.1 S 19 26 10 14 1014.9 1014.9 0.0
04/07:30pm 16.7 11.7 1.2 35 6.9 SSW 17 20 9 11 1014.5 1014.5 0.0
04/07:00pm 16.0 12.0 -2.0 29 7.4 SW 9 13 5 7 1014.1 1014.1 0.0
04/06:30pm 17.3 13.3 -1.9 27 8.0 SW 9 11 5 6 1013.7 1013.7 0.0
04/06:00pm 19.0 14.7 -2.0 24 8.9 SW 11 17 6 9 1013.4 1013.4 0.0
04/05:30pm 20.6 15.5 -1.8 22 9.6 SW 15 20 8 11 1013.1 1013.1 0.0
04/05:00pm 22.0 15.9 -2.0 20 10.4 SW 20 32 11 17 1012.9 1012.9 0.0
04/04:30pm 22.9 17.0 -1.9 19 10.9 SW 19 28 10 15 1012.6 1012.6 0.0
04/04:00pm 23.3 16.8 -2.3 18 11.2 SW 22 32 12 17 1012.4 1012.4 0.0
04/03:30pm 24.0 17.9 -4.2 15 11.9 W 19 28 10 15 1012.5 1012.5 0.0
04/03:00pm 24.3 19.0 -4.0 15 12.1 WSW 15 24 8 13 1012.5 1012.5 0.0
04/02:30pm 24.2 19.0 -2.4 17 11.7 WSW 15 22 8 12 1012.7 1012.7 0.0
04/02:00pm 24.2 18.9 -3.2 16 11.9 W 15 24 8 13 1012.9 1012.9 0.0
04/01:30pm 23.7 17.5 -2.8 17 11.5 SW 20 32 11 17 1013.3 1013.3 0.0
04/01:00pm 23.5 17.6 -2.2 18 11.3 WSW 19 32 10 17 1013.6 1013.6 0.0
04/12:30pm 23.7 17.6 -2.0 18 11.3 SW 20 32 11 17 1013.9 1013.9 0.0
04/12:00pm 22.9 18.2 -1.9 19 10.9 WNW 13 20 7 11 1014.3 1014.3 0.0
04/11:30am 22.9 17.5 -1.2 20 10.7 WNW 17 24 9 13 1014.6 1014.6 0.0
04/11:00am 21.7 16.8 -0.3 23 9.8 NW 15 22 8 12 1015.0 1015.0 0.0
04/10:30am 20.5 15.7 0.4 26 9.0 NW 15 20 8 11 1015.0 1015.0 0.0
04/10:00am 19.6 14.6 1.1 29 8.4 NNW 17 22 9 12 1015.1 1015.1 0.0
04/09:30am 16.8 12.4 0.5 33 7.1 NNW 13 17 7 9 1015.1 1015.1 0.0
04/09:00am 13.7 10.0 0.0 39 5.7 N 9 13 5 7 1015.2 1015.2 0.0
04/08:30am 11.3 7.6 -0.2 45 4.7 NNE 9 13 5 7 1015.0 1015.0 0.0
04/08:00am 8.5 5.8 0.2 56 3.3 E 4 6 2 3 1014.9 1014.9 0.0
04/07:30am 4.2 0.8 -2.2 63 2.3 ENE 6 7 3 4 1014.8 1014.8 0.0
04/07:00am 3.2 -0.3 -2.5 66 2.0 ENE 6 7 3 4 1014.7 1014.7 0.0
04/06:30am 3.1 -0.4 -3.2 63 2.2 NE 6 7 3 4 1014.7 1014.7 0.0
04/06:00am 4.1 1.5 -1.9 65 2.2 E 2 6 1 3 1014.8 1014.8 0.0
04/05:30am 3.8 0.1 -4.2 56 2.7 NNE 6 9 3 5 1014.5 1014.5 0.0
04/05:00am 5.0 2.6 -3.0 56 2.8 CALM 0 0 0 0 1014.6 1014.6 0.0
04/04:30am 5.8 2.4 -2.0 57 2.9 NE 6 6 3 3 1014.6 1014.6 0.0
04/04:00am 6.0 2.5 -1.6 58 2.8 NNE 7 9 4 5 1014.6 1014.6 0.0
04/03:30am 5.4 1.4 -2.2 58 2.8 NNE 9 9 5 5 1014.7 1014.7 0.0
04/03:00am 5.8 2.2 -2.3 56 2.9 NNE 7 9 4 5 1014.9 1014.9 0.0
04/02:30am 6.1 2.7 -2.2 55 3.0 ENE 6 7 3 4 1015.1 1015.1 0.0
04/02:00am 6.6 3.1 -2.8 51 3.4 ESE 6 7 3 4 1015.2 1015.2 0.0
04/01:30am 7.2 3.6 -3.9 45 4.0 ESE 6 7 3 4 1015.6 1015.6 0.0
04/01:00am 9.1 5.6 -1.6 47 4.1 E 7 7 4 4 1015.7 1015.7 0.0
04/12:30am 9.3 5.8 -1.4 47 4.2 ENE 7 9 4 5 1015.9 1015.9 0.0
04/12:00am 9.7 5.8 -1.6 45 4.4 ENE 9 11 5 6 1016.1 1016.1 0.0
 
Date/Time
EST
Temp
°C
App
Temp
°C
Dew
Point
°C
Rel
Hum
%
Delta-T
°C
Wind Press
QNH
hPa
Press
MSL
hPa
Rain since
9am
mm
Dir  Spd
km/h
Gust
km/h
Spd
kts
Gust
kts
03/11:30pm 9.5 5.5 -2.1 44 4.4 ESE 9 9 5 5 1016.1 1016.1 0.0
03/11:00pm 10.8 7.3 -1.6 42 4.9 E 7 7 4 4 1016.0 1016.0 0.0
03/10:30pm 11.2 7.7 -1.5 41 5.0 ENE 7 9 4 5 1015.9 1015.9 0.0
03/10:00pm 12.3 7.7 -0.9 40 5.3 ENE 13 15 7 8 1016.0 1016.0 0.0
03/09:30pm 10.6 7.0 -2.1 41 4.9 E 7 9 4 5 1015.9 1015.9 0.0
03/09:00pm 10.4 6.8 -1.9 42 4.8 ESE 7 9 4 5 1016.1 1016.1 0.0
03/08:30pm 10.8 7.1 -2.9 38 5.2 SE 7 9 4 5 1016.1 1016.1 0.0
03/08:00pm 12.4 9.0 -2.2 36 5.7 SE 6 7 3 4 1016.1 1016.1 0.0
03/07:30pm 13.6 10.8 -0.4 38 5.8 SSW 4 9 2 5 1016.0 1016.0 0.0
03/07:00pm 14.6 11.1 -1.1 34 6.5 SSW 7 11 4 6 1015.9 1015.9 0.0
03/06:30pm 15.3 12.6 -2.6 29 7.2 S 2 11 1 6 1015.6 1015.6 0.0
03/06:00pm 18.1 14.7 -2.2 25 8.5 S 6 6 3 3 1015.3 1015.3 0.0
03/05:30pm 21.1 17.8 -1.4 22 9.8 SSE 6 9 3 5 1015.2 1015.2 0.0
03/05:00pm 22.8 18.7 -2.7 18 11.0 W 9 15 5 8 1015.2 1015.2 0.0
03/04:30pm 23.4 19.0 -2.2 18 11.2 NW 11 17 6 9 1015.3 1015.3 0.0
03/04:00pm 22.9 19.0 -1.2 20 10.7 WSW 9 13 5 7 1015.5 1015.5 0.0
03/03:30pm 23.2 18.1 -1.7 19 11.0 WNW 15 20 8 11 1015.6 1015.6 0.0
03/03:00pm 23.0 18.4 -1.1 20 10.7 W 13 24 7 13 1015.8 1015.8 0.0
03/02:30pm 23.3 18.2 -2.3 18 11.2 WNW 15 26 8 14 1016.2 1016.2 0.0
03/02:00pm 22.6 18.8 -0.8 21 10.4 WSW 9 15 5 8 1016.7 1016.7 0.0
03/01:30pm 22.5 18.8 -0.3 22 10.3 N 9 17 5 9 1017.2 1017.2 0.0
03/01:00pm 22.0 18.8 0.5 24 9.8 N 7 13 4 7 1017.8 1017.8 0.0
03/12:30pm 21.2 18.1 1.5 27 9.1 NNE 7 13 4 7 1018.5 1018.6 0.0
03/12:00pm 20.8 17.5 2.6 30 8.5 NNE 9 15 5 8 1019.3 1019.3 0.0
03/11:30am 19.6 15.6 2.9 33 7.8 NNE 13 17 7 9 1019.7 1019.7 0.0
03/11:00am 18.9 15.5 3.9 37 7.1 NNE 11 17 6 9 1020.2 1020.2 0.0
03/10:30am 17.7 13.8 3.6 39 6.6 ENE 13 17 7 9 1020.7 1020.7 0.0
03/10:00am 16.3 13.0 4.4 45 5.6 NE 11 15 6 8 1021.2 1021.2 0.0
03/09:30am 14.0 10.3 4.3 52 4.5 ENE 13 17 7 9 1021.3 1021.3 0.0
03/09:00am 11.7 8.0 4.4 61 3.3 ENE 13 19 7 10 1021.2 1021.2 0.0
03/08:30am 9.8 6.4 4.2 68 2.5 ENE 11 15 6 8 1021.2 1021.2 0.0
03/08:00am 7.5 4.3 3.2 74 1.8 ENE 9 11 5 6 1021.2 1021.2 0.0
03/07:30am 4.4 0.8 0.9 78 1.4 ENE 9 11 5 6 1021.0 1021.0 0.0
03/07:00am 4.3 0.8 1.5 82 1.1 SSE 9 11 5 6 1020.9 1020.9 0.0
03/06:30am 4.4 1.4 1.8 83 1.0 SSE 7 7 4 4 1020.6 1020.6 0.0
03/06:00am 4.7 1.7 1.7 81 1.2 E 7 7 4 4 1020.4 1020.4 0.0
03/05:30am 4.0 0.4 0.9 80 1.2 E 9 9 5 5 1020.1 1020.1 0.0
03/05:00am 4.3 0.3 0.3 75 1.5 NE 11 13 6 7 1020.1 1020.1 0.0
03/04:30am 4.3 0.7 0.6 77 1.4 NE 9 11 5 6 1020.0 1020.0 0.0
03/04:00am 4.4 0.4 0.2 74 1.6 NE 11 11 6 6 1020.0 1020.0 0.0
03/03:30am 6.1 2.6 1.4 72 1.9 ENE 9 11 5 6 1020.3 1020.3 0.0
03/03:00am 6.3 2.4 1.2 70 2.0 E 11 13 6 7 1020.4 1020.4 0.0
03/02:30am 7.5 4.1 1.6 66 2.4 E 9 11 5 6 1020.7 1020.7 0.0
03/02:00am 8.1 4.3 1.7 64 2.6 E 11 13 6 7 1021.1 1021.1 0.0
03/01:30am 8.5 4.8 2.1 64 2.7 E 11 13 6 7 1021.2 1021.2 0.0
03/01:00am 6.9 2.8 0.1 62 2.7 E 11 13 6 7 1021.5 1021.5 0.0
03/12:30am 6.4 2.9 -1.2 58 2.9 ESE 7 9 4 5 1021.8 1021.8 0.0
03/12:00am 8.0 5.3 0.0 57 3.2 E 4 6 2 3 1022.1 1022.1 0.0
 
Date/Time
EST
Temp
°C
App
Temp
°C
Dew
Point
°C
Rel
Hum
%
Delta-T
°C
Wind Press
QNH
hPa
Press
MSL
hPa
Rain since
9am
mm
Dir  Spd
km/h
Gust
km/h
Spd
kts
Gust
kts
02/11:30pm 9.0 5.4 0.7 56 3.4 ESE 9 11 5 6 1021.9 1021.9 0.0
02/11:00pm 9.5 5.5 0.4 53 3.7 E 11 15 6 8 1021.9 1021.9 0.0
02/10:30pm 9.1 5.6 -1.6 47 4.1 E 7 9 4 5 1022.1 1022.1 0.0
02/10:00pm 10.2 6.6 -1.8 43 4.6 SE 7 9 4 5 1022.1 1022.1 0.0
02/09:30pm 10.8 6.8 -2.2 40 5.0 SE 9 11 5 6 1022.1 1022.1 0.0
02/09:00pm 10.1 6.1 -2.2 42 4.7 SE 9 13 5 7 1022.2 1022.2 0.0
02/08:30pm 10.7 7.0 -2.7 39 5.1 S 7 9 4 5 1022.1 1022.1 0.0
02/08:00pm 11.7 8.2 -2.5 37 5.5 ENE 6 7 3 4 1022.0 1022.0 0.0
02/07:30pm 12.2 8.0 -3.6 33 6.0 NE 9 9 5 5 1021.7 1021.7 0.0
02/07:00pm 12.5 8.7 -4.1 31 6.2 ENE 7 9 4 5 1021.7 1021.7 0.0
02/06:30pm 14.8 11.1 -2.6 30 7.0 E 7 9 4 5 1021.5 1021.5 0.0
02/06:00pm 16.7 13.0 -2.9 26 7.9 ENE 7 9 4 5 1021.4 1021.4 0.0
02/05:30pm 18.6 14.5 -2.9 23 8.9 ENE 9 13 5 7 1021.6 1021.6 0.0
02/05:00pm 20.6 16.3 -1.8 22 9.6 E 11 15 6 8 1021.6 1021.6 0.0
02/04:30pm 21.1 17.1 -2.0 21 10.0 E 9 13 5 7 1021.8 1021.8 0.0
02/04:00pm 21.3 17.3 -1.9 21 10.0 E 9 15 5 8 1021.8 1021.8 0.0
02/03:30pm 21.2 17.2 -2.0 21 10.0 ESE 9 15 5 8 1021.8 1021.8 0.0
02/03:00pm 21.1 16.8 -2.0 21 9.9 SE 11 19 6 10 1022.1 1022.1 0.0
02/02:30pm 21.1 17.8 -0.2 24 9.5 SE 7 13 4 7 1022.3 1022.3 0.0
02/02:00pm 21.4 18.2 0.6 25 9.4 SE 7 11 4 6 1022.8 1022.8 0.0
02/01:30pm 20.8 17.4 1.6 28 8.9 E 9 15 5 8 1023.2 1023.2 0.0
02/01:00pm 20.1 16.2 1.0 28 8.6 E 11 19 6 10 1023.5 1023.5 0.0
02/12:30pm 19.3 15.3 2.6 33 7.8 ESE 13 17 7 9 1024.1 1024.1 0.0
02/12:00pm 18.8 15.4 3.8 37 7.1 ESE 11 20 6 11 1024.6 1024.6 0.0
02/11:30am 17.7 13.9 3.9 40 6.5 E 13 17 7 9 1025.0 1025.0 0.0
02/11:00am 17.1 13.9 5.1 45 5.7 NE 11 19 6 10 1025.5 1025.5 0.0
02/10:30am 16.3 13.0 6.2 51 4.9 NE 13 17 7 9 1025.9 1025.9 0.0
02/10:00am 14.7 10.9 5.8 55 4.2 NE 15 17 8 9 1026.0 1026.0 0.0
02/09:30am 13.3 9.8 5.5 59 3.7 ENE 13 20 7 11 1026.0 1026.0 0.0
02/09:00am 11.8 8.2 5.2 64 3.0 ENE 13 17 7 9 1026.1 1026.2 0.0
02/08:30am 9.8 7.3 4.8 71 2.3 E 7 9 4 5 1025.9 1025.9 0.0
02/08:00am 7.3 4.4 4.4 82 1.3 E 9 13 5 7 1025.6 1025.6 0.0
02/07:30am 3.5 0.4 1.5 87 0.8 E 7 9 4 5 1025.3 1025.3 0.0
02/07:00am 2.1 -1.1 0.6 90 0.6 E 7 9 4 5 1025.0 1025.0 0.0
02/06:30am 2.5 -0.8 0.2 85 0.9 E 7 9 4 5 1024.7 1024.7 0.0
02/06:00am 3.5 0.6 1.7 88 0.7 ESE 6 7 3 4 1024.5 1024.5 0.0
02/05:30am 3.0 -0.3 0.1 81 1.1 E 7 7 4 4 1024.2 1024.2 0.0
02/05:00am 3.2 -0.2 -0.3 78 1.3 ENE 7 7 4 4 1024.1 1024.1 0.0
02/04:30am 4.6 1.6 2.1 84 1.0 ENE 7 7 4 4 1024.2 1024.2 0.0
02/04:00am 4.7 1.9 2.1 83 1.0 ENE 6 7 3 4 1024.3 1024.3 0.0
02/03:30am 4.8 1.6 0.9 76 1.5 ENE 7 7 4 4 1024.2 1024.2 0.0
02/03:00am 6.5 3.6 2.6 76 1.6 ENE 7 9 4 5 1024.3 1024.3 0.0
02/02:30am 6.5 3.5 2.2 74 1.8 ENE 7 9 4 5 1024.4 1024.4 0.0
02/02:00am 6.6 3.1 1.3 69 2.1 ENE 9 11 5 6 1024.5 1024.5 0.0
02/01:30am 8.2 4.6 2.9 69 2.3 ENE 11 13 6 7 1024.5 1024.5 0.0
02/01:00am 7.8 4.4 1.9 66 2.4 ENE 9 11 5 6 1024.6 1024.6 0.0
02/12:30am 8.3 4.9 2.1 65 2.6 E 9 11 5 6 1024.8 1024.8 0.0
02/12:00am 8.2 4.8 1.6 63 2.7 E 9 11 5 6 1024.9 1024.9 0.0
 
Date/Time
EST
Temp
°C
App
Temp
°C
Dew
Point
°C
Rel
Hum
%
Delta-T
°C
Wind Press
QNH
hPa
Press
MSL
hPa
Rain since
9am
mm
Dir  Spd
km/h
Gust
km/h
Spd
kts
Gust
kts
01/11:30pm 8.1 5.0 1.5 63 2.7 ESE 7 9 4 5 1025.0 1025.0 0.0
01/11:00pm 8.1 4.9 0.6 59 3.0 ESE 7 9 4 5 1024.9 1024.9 0.0
01/10:30pm 8.5 5.2 0.0 55 3.4 ESE 7 9 4 5 1024.7 1024.7 0.0
01/10:00pm 9.4 5.9 1.1 56 3.4 SE 9 9 5 5 1024.7 1024.7 0.0

Other formats

Comma delimited format used in spreadsheet applications
http://www.bom.gov.au/fwo/IDN60801/IDN60801.94703.axf

JavaScript Object Notation format (JSON) in row-major order
http://www.bom.gov.au/fwo/IDN60801/IDN60801.94703.json

Data quality

Most of these data are generated automatically and are frequently updated. Quality checks on data are not normally performed. It is possible for incorrect values to appear. Refer to information at About Latest Weather Observations and please check the disclaimer before using these data.